createdAt,value
2019-02-23T18:33:33.706Z,1.87
2019-02-23T18:36:08.013Z,1.77
2019-02-23T18:38:35.384Z,1.86
2019-02-23T18:41:05.273Z,1.83
2019-02-23T18:43:42.571Z,1.72
2019-02-23T18:46:12.833Z,1.74
2019-02-23T18:48:39.968Z,1.67
2019-02-23T18:51:08.075Z,1.55
2019-02-23T18:53:35.398Z,1.51
2019-02-23T18:56:02.556Z,1.41
2019-02-23T18:58:30.046Z,1.34
2019-02-23T19:00:57.107Z,1.28
2019-02-23T19:03:24.280Z,1.41
2019-02-23T19:05:55.670Z,1.38
2019-02-23T19:08:24.980Z,1.30
2019-02-23T19:10:53.028Z,1.21
2019-02-23T19:13:21.280Z,1.14
2019-02-23T19:15:50.458Z,1.12
2019-02-23T19:18:18.999Z,1.15
2019-02-23T19:20:47.412Z,1.13
2019-02-23T19:23:16.625Z,1.07
2019-02-23T19:25:49.018Z,0.92
2019-02-23T19:28:17.293Z,1.11
2019-02-23T19:30:51.589Z,1.09
2019-02-23T19:33:18.855Z,0.97
2019-02-23T19:35:47.501Z,0.93
2019-02-23T19:38:14.679Z,0.95
2019-02-23T19:40:42.096Z,0.93
2019-02-23T19:43:10.210Z,1.07
2019-02-23T19:45:38.666Z,0.97
2019-02-23T19:48:05.701Z,0.85
2019-02-23T19:50:32.829Z,0.82
2019-02-23T19:53:01.062Z,0.69
2019-02-23T19:55:28.189Z,0.69
2019-02-23T19:57:56.038Z,0.71
2019-02-23T20:00:25.662Z,0.70
2019-02-23T20:02:53.967Z,0.76
2019-02-23T20:05:22.364Z,0.59
2019-02-23T20:07:50.096Z,0.77
2019-02-23T20:10:17.281Z,0.55
2019-02-23T20:12:45.428Z,0.58
2019-02-23T20:15:13.628Z,0.36
2019-02-23T20:17:41.885Z,0.24
2019-02-23T20:20:09.312Z,0.16
2019-02-23T20:22:38.419Z,0.03
2019-02-23T20:25:10.310Z,-0.02
2019-02-23T20:27:39.498Z,-0.05
2019-02-23T20:30:06.921Z,0.10
2019-02-23T20:32:34.920Z,0.24
2019-02-23T20:35:02.090Z,0.21
2019-02-23T20:37:29.329Z,0.02
2019-02-23T20:39:57.478Z,0.23
2019-02-23T20:42:28.681Z,0.35
2019-02-23T20:44:57.140Z,0.41
2019-02-23T20:47:24.386Z,0.50
2019-02-23T20:49:51.657Z,0.55
2019-02-23T20:52:20.838Z,0.58
2019-02-23T20:54:49.020Z,0.56
2019-02-23T20:57:18.200Z,0.45
2019-02-23T20:59:45.372Z,0.53
2019-02-23T21:02:13.413Z,0.45
2019-02-23T21:04:40.855Z,0.45
2019-02-23T21:07:08.161Z,0.43
2019-02-23T21:09:35.412Z,0.33
2019-02-23T21:12:03.458Z,0.35
2019-02-23T21:14:30.832Z,0.33
2019-02-23T21:16:58.117Z,0.19
2019-02-23T21:19:26.141Z,0.16
2019-02-23T21:21:53.406Z,0.21
2019-02-23T21:24:21.862Z,0.18
2019-02-23T21:26:49.406Z,0.22
2019-02-23T21:29:16.592Z,0.30
2019-02-23T21:31:43.857Z,0.27
2019-02-23T21:34:12.377Z,0.28
2019-02-23T21:36:39.849Z,0.30
2019-02-23T21:39:08.061Z,0.15
2019-02-23T21:41:37.473Z,-0.19
2019-02-23T21:44:05.634Z,0.09
2019-02-23T21:46:33.265Z,0.15
2019-02-23T21:49:01.462Z,0.05
2019-02-23T21:51:30.486Z,-0.06
2019-02-23T21:53:57.530Z,-0.03
2019-02-23T21:56:24.587Z,0.09
2019-02-23T21:58:52.312Z,0.19
2019-02-23T22:01:20.878Z,0.25
2019-02-23T22:03:48.991Z,0.16
2019-02-23T22:06:18.218Z,0.09
2019-02-23T22:08:46.535Z,0.25
2019-02-23T22:11:13.981Z,0.18
2019-02-23T22:13:42.465Z,0.20
2019-02-23T22:16:09.661Z,0.11
2019-02-23T22:18:38.200Z,0.07
2019-02-23T22:21:05.511Z,0.15
2019-02-23T22:23:32.805Z,0.16
2019-02-23T22:26:00.163Z,0.00
2019-02-23T22:28:27.195Z,-0.01
2019-02-23T22:30:54.564Z,-0.04
2019-02-23T22:33:21.617Z,-0.07
2019-02-23T22:35:48.975Z,-0.07
2019-02-23T22:38:16.342Z,-0.14
2019-02-23T22:40:43.682Z,-0.21
2019-02-23T22:43:10.974Z,-0.22
2019-02-23T22:45:38.002Z,-0.41
2019-02-23T22:48:05.052Z,-0.27
2019-02-23T22:50:32.338Z,-0.19
2019-02-23T22:52:59.391Z,-0.42
2019-02-23T22:55:26.701Z,-0.32
2019-02-23T22:57:54.039Z,-0.46
2019-02-23T23:00:21.144Z,-0.33
2019-02-23T23:02:49.816Z,-0.30
2019-02-23T23:05:17.917Z,-0.40
2019-02-23T23:07:44.968Z,-0.38
2019-02-23T23:10:12.972Z,-0.44
2019-02-23T23:12:40.338Z,-0.37
2019-02-23T23:15:07.690Z,-0.30
2019-02-23T23:17:36.161Z,-0.26
2019-02-23T23:20:03.197Z,-0.38
2019-02-23T23:22:30.504Z,-0.45
2019-02-23T23:24:57.533Z,-0.41
2019-02-23T23:27:24.984Z,-0.21
2019-02-23T23:29:53.090Z,-0.35
2019-02-23T23:32:20.390Z,-0.31
2019-02-23T23:34:48.656Z,-0.20
2019-02-23T23:37:16.038Z,0.02
2019-02-23T23:39:43.069Z,-0.05
2019-02-23T23:42:10.370Z,-0.05
2019-02-23T23:44:37.678Z,0.08
2019-02-23T23:47:04.879Z,0.02
2019-02-23T23:49:31.911Z,0.04
2019-02-23T23:51:59.334Z,-0.23
2019-02-23T23:54:26.367Z,-0.06
2019-02-23T23:56:53.396Z,-0.11
2019-02-23T23:59:20.445Z,-0.13
